createdAt,value
2023-04-30T00:00:30.675Z,69.63
2023-04-30T00:01:30.711Z,69.59
2023-04-30T00:02:30.934Z,69.89
2023-04-30T00:03:31.075Z,69.83
2023-04-30T00:04:31.140Z,69.95
2023-04-30T00:05:31.294Z,70.38
2023-04-30T00:06:31.445Z,70.18
2023-04-30T00:07:31.519Z,70.05
2023-04-30T00:08:31.629Z,70.12
2023-04-30T00:09:31.735Z,69.84
2023-04-30T00:10:31.882Z,69.55
2023-04-30T00:11:31.947Z,69.39
2023-04-30T00:12:32.067Z,69.12
2023-04-30T00:13:32.221Z,69.06
2023-04-30T00:14:32.329Z,68.95
2023-04-30T00:15:32.508Z,69.70
2023-04-30T00:16:32.676Z,69.49
2023-04-30T00:17:32.785Z,69.21
2023-04-30T00:18:33.792Z,69.13
2023-04-30T00:19:33.105Z,68.88
2023-04-30T00:20:33.279Z,68.71
2023-04-30T00:21:33.401Z,68.51
2023-04-30T00:22:33.527Z,68.22
2023-04-30T00:23:33.652Z,68.14
2023-04-30T00:24:33.788Z,68.57
2023-04-30T00:25:33.962Z,68.88
2023-04-30T00:26:34.098Z,68.80
2023-04-30T00:27:34.275Z,68.88
2023-04-30T00:28:34.501Z,69.05
2023-04-30T00:29:34.524Z,69.34
2023-04-30T00:30:34.641Z,69.35
2023-04-30T00:31:34.729Z,69.49
2023-04-30T00:32:34.837Z,69.38
2023-04-30T00:33:34.907Z,69.11
2023-04-30T00:34:34.980Z,68.93
2023-04-30T00:35:35.084Z,68.68
2023-04-30T00:36:35.150Z,68.77
2023-04-30T00:37:35.261Z,68.82
2023-04-30T00:38:35.354Z,68.85
2023-04-30T00:39:35.423Z,68.86
2023-04-30T00:40:35.527Z,69.06
2023-04-30T00:41:35.601Z,68.88
2023-04-30T00:42:35.674Z,68.61
2023-04-30T00:43:35.776Z,68.70
2023-04-30T00:44:35.874Z,68.76
2023-04-30T00:45:36.011Z,68.55
2023-04-30T00:46:36.017Z,68.43
2023-04-30T00:47:36.167Z,68.40
2023-04-30T00:48:36.392Z,68.42
2023-04-30T00:49:36.382Z,68.32
2023-04-30T00:50:36.510Z,68.28
2023-04-30T00:51:36.648Z,68.21
2023-04-30T00:52:36.790Z,68.13
2023-04-30T00:53:36.881Z,68.53
2023-04-30T00:54:36.989Z,68.55
2023-04-30T00:55:37.167Z,68.54
2023-04-30T00:56:37.226Z,68.79
2023-04-30T00:57:37.334Z,69.00
2023-04-30T00:58:37.442Z,68.96
2023-04-30T00:59:37.572Z,68.85
2023-04-30T01:00:37.676Z,69.02
2023-04-30T01:01:37.866Z,69.30
2023-04-30T01:02:38.014Z,69.23
2023-04-30T01:03:38.120Z,69.08
2023-04-30T01:04:38.229Z,69.16
2023-04-30T01:05:38.404Z,69.48
2023-04-30T01:06:38.683Z,69.85
2023-04-30T01:07:38.678Z,69.97
2023-04-30T01:08:38.717Z,70.41
2023-04-30T01:09:39.026Z,71.02
2023-04-30T01:10:39.128Z,71.27
2023-04-30T01:11:39.396Z,71.07
2023-04-30T01:12:39.264Z,70.86
2023-04-30T01:13:39.340Z,70.61
2023-04-30T01:14:39.479Z,70.56
2023-04-30T01:15:39.600Z,70.25
2023-04-30T01:16:39.801Z,70.20
2023-04-30T01:17:39.942Z,70.32
2023-04-30T01:18:40.050Z,70.36
2023-04-30T01:19:40.097Z,70.10
2023-04-30T01:20:40.186Z,70.01
2023-04-30T01:21:40.306Z,70.02
2023-04-30T01:22:40.405Z,69.94
2023-04-30T01:23:40.444Z,69.89
2023-04-30T01:24:40.559Z,69.64
2023-04-30T01:25:40.645Z,69.48
2023-04-30T01:26:40.759Z,69.47
2023-04-30T01:27:40.870Z,69.44
2023-04-30T01:28:41.047Z,69.59
2023-04-30T01:29:41.107Z,69.78
2023-04-30T01:30:41.241Z,69.73
2023-04-30T01:31:42.368Z,69.55
2023-04-30T01:32:41.543Z,69.44
2023-04-30T01:33:41.562Z,69.65
2023-04-30T01:34:41.665Z,69.81
2023-04-30T01:35:41.773Z,69.69
2023-04-30T01:36:41.899Z,69.67
2023-04-30T01:37:42.037Z,69.57
2023-04-30T01:38:42.166Z,69.49
2023-04-30T01:39:42.242Z,69.45
2023-04-30T01:40:42.388Z,69.60
2023-04-30T01:41:42.519Z,69.61
2023-04-30T01:42:42.590Z,69.69
2023-04-30T01:43:42.717Z,69.74
2023-04-30T01:44:42.835Z,69.65
2023-04-30T01:45:43.053Z,69.58
2023-04-30T01:46:43.194Z,69.48
2023-04-30T01:47:43.262Z,69.28
2023-04-30T01:48:43.380Z,69.14
2023-04-30T01:49:43.458Z,69.02
2023-04-30T01:50:43.602Z,68.97
2023-04-30T01:51:43.837Z,68.89
2023-04-30T01:52:43.833Z,68.99
2023-04-30T01:53:43.918Z,69.48
2023-04-30T01:54:43.986Z,69.68
2023-04-30T01:55:44.084Z,69.63
2023-04-30T01:56:44.162Z,69.62
2023-04-30T01:57:44.302Z,69.63
2023-04-30T01:58:44.377Z,69.83
2023-04-30T01:59:44.459Z,69.83
2023-04-30T02:00:44.532Z,69.75
2023-04-30T02:01:44.741Z,69.80
2023-04-30T02:02:44.854Z,70.19
2023-04-30T02:03:45.021Z,70.02
2023-04-30T02:04:44.950Z,69.93
2023-04-30T02:05:45.082Z,70.01
2023-04-30T02:06:45.250Z,70.11
2023-04-30T02:07:45.325Z,70.07
2023-04-30T02:08:45.404Z,69.72
2023-04-30T02:09:45.502Z,69.50
2023-04-30T02:10:45.610Z,69.37
2023-04-30T02:11:45.844Z,69.27
2023-04-30T02:12:45.813Z,69.55
2023-04-30T02:13:45.886Z,69.48
2023-04-30T02:14:45.982Z,69.30
2023-04-30T02:15:46.208Z,69.15
2023-04-30T02:16:46.192Z,69.12
2023-04-30T02:17:46.287Z,68.94
2023-04-30T02:18:46.376Z,68.91
2023-04-30T02:19:46.478Z,68.88
2023-04-30T02:20:46.577Z,69.50
2023-04-30T02:21:46.690Z,69.59
2023-04-30T02:22:46.751Z,69.49
2023-04-30T02:23:46.845Z,69.36
2023-04-30T02:24:46.932Z,69.06
2023-04-30T02:25:47.041Z,68.85
2023-04-30T02:26:47.101Z,68.61
2023-04-30T02:27:47.204Z,68.51
2023-04-30T02:28:47.320Z,68.50
2023-04-30T02:29:47.479Z,68.50
2023-04-30T02:30:47.631Z,68.82
2023-04-30T02:31:47.792Z,69.10
2023-04-30T02:32:47.989Z,69.35
2023-04-30T02:33:48.100Z,69.50
2023-04-30T02:34:48.288Z,69.32
2023-04-30T02:35:48.375Z,69.43
2023-04-30T02:36:48.556Z,69.56
2023-04-30T02:37:48.719Z,69.65
2023-04-30T02:38:48.875Z,69.69
2023-04-30T02:39:49.043Z,69.75
2023-04-30T02:40:49.199Z,69.62
2023-04-30T02:41:49.368Z,69.62
2023-04-30T02:42:49.512Z,69.63
2023-04-30T02:43:49.660Z,69.64
2023-04-30T02:44:49.820Z,69.56
2023-04-30T02:45:49.971Z,69.43
2023-04-30T02:46:50.063Z,69.41
2023-04-30T02:47:50.250Z,69.23
2023-04-30T02:48:50.368Z,69.23
2023-04-30T02:49:50.494Z,69.14
2023-04-30T02:50:50.628Z,69.18
2023-04-30T02:51:50.742Z,69.20
2023-04-30T02:52:50.887Z,69.32
2023-04-30T02:53:51.097Z,69.54
2023-04-30T02:54:51.198Z,70.38
2023-04-30T02:55:51.313Z,70.54
2023-04-30T02:56:51.523Z,70.55
2023-04-30T02:57:51.649Z,70.67
2023-04-30T02:58:51.866Z,70.57
2023-04-30T02:59:52.096Z,70.75
2023-04-30T03:00:52.201Z,70.71
2023-04-30T03:01:52.286Z,70.62
2023-04-30T03:02:52.561Z,70.37
2023-04-30T03:03:52.511Z,69.83
2023-04-30T03:04:52.684Z,69.90
2023-04-30T03:05:52.825Z,69.96
2023-04-30T03:06:52.972Z,70.06
2023-04-30T03:07:53.092Z,70.09
2023-04-30T03:08:53.238Z,69.93
2023-04-30T03:09:53.426Z,69.81
2023-04-30T03:10:53.484Z,69.72
2023-04-30T03:11:53.673Z,69.38
2023-04-30T03:12:53.868Z,69.20
2023-04-30T03:13:53.964Z,69.21
2023-04-30T03:14:54.093Z,69.70
2023-04-30T03:15:54.223Z,69.53
2023-04-30T03:16:54.402Z,69.35
2023-04-30T03:17:54.600Z,69.30
2023-04-30T03:18:54.719Z,69.13
2023-04-30T03:19:55.118Z,69.17
2023-04-30T03:20:55.069Z,69.28
2023-04-30T03:21:55.188Z,69.48
2023-04-30T03:22:55.337Z,69.57
2023-04-30T03:23:55.459Z,69.56
2023-04-30T03:24:55.639Z,69.47
2023-04-30T03:25:55.811Z,69.48
2023-04-30T03:26:55.993Z,69.56
2023-04-30T03:27:56.119Z,69.34
2023-04-30T03:28:56.239Z,69.23
2023-04-30T03:29:56.634Z,69.01
2023-04-30T03:30:56.641Z,68.89
2023-04-30T03:31:56.796Z,68.66
2023-04-30T03:32:56.906Z,68.49
2023-04-30T03:33:57.041Z,68.38
2023-04-30T03:34:57.202Z,68.23
2023-04-30T03:35:57.343Z,68.12
2023-04-30T03:36:57.468Z,68.08
2023-04-30T03:37:57.618Z,68.12
2023-04-30T03:38:57.777Z,68.24
2023-04-30T03:39:57.949Z,68.38
2023-04-30T03:40:58.068Z,68.37
2023-04-30T03:41:58.212Z,68.55
2023-04-30T03:42:58.380Z,68.58
2023-04-30T03:43:58.552Z,68.59
2023-04-30T03:44:58.667Z,68.52
2023-04-30T03:45:58.870Z,68.47
2023-04-30T03:46:58.924Z,68.22
2023-04-30T03:47:59.098Z,68.18
2023-04-30T03:48:59.213Z,68.21
2023-04-30T03:49:59.400Z,68.37
2023-04-30T03:50:59.554Z,68.28
2023-04-30T03:51:59.853Z,68.41
2023-04-30T03:52:59.805Z,68.55
2023-04-30T03:53:59.933Z,68.51
2023-04-30T03:55:00.140Z,68.35
2023-04-30T03:56:00.292Z,68.16
2023-04-30T03:57:00.397Z,68.04
2023-04-30T03:58:00.526Z,67.91
2023-04-30T03:59:00.624Z,67.93
2023-04-30T04:00:00.753Z,67.98
2023-04-30T04:01:00.896Z,68.09
2023-04-30T04:02:01.029Z,68.11
2023-04-30T04:03:01.155Z,68.23
2023-04-30T04:04:01.362Z,68.35
2023-04-30T04:05:01.461Z,68.45
2023-04-30T04:06:01.669Z,68.60
2023-04-30T04:07:01.756Z,68.71
2023-04-30T04:08:01.928Z,68.61
2023-04-30T04:09:02.066Z,68.61
2023-04-30T04:10:02.168Z,68.55
2023-04-30T04:11:02.283Z,68.39
2023-04-30T04:12:02.435Z,68.28
2023-04-30T04:13:02.580Z,68.47
2023-04-30T04:14:02.698Z,68.51
2023-04-30T04:15:02.822Z,68.30
2023-04-30T04:16:03.110Z,68.66
2023-04-30T04:17:03.129Z,68.73
2023-04-30T04:18:03.529Z,68.90
2023-04-30T04:19:03.410Z,68.76
2023-04-30T04:20:03.486Z,68.67
2023-04-30T04:21:03.587Z,69.30
2023-04-30T04:22:03.689Z,69.44
2023-04-30T04:23:03.797Z,69.38
2023-04-30T04:24:03.938Z,69.28
2023-04-30T04:25:04.029Z,69.41
2023-04-30T04:26:04.158Z,69.48
2023-04-30T04:27:04.250Z,69.85
2023-04-30T04:28:04.351Z,69.97
2023-04-30T04:29:04.462Z,69.97
2023-04-30T04:30:04.546Z,69.92
2023-04-30T04:31:04.619Z,69.76
2023-04-30T04:32:04.778Z,69.62
2023-04-30T04:33:04.918Z,69.74
2023-04-30T04:34:04.935Z,69.56
2023-04-30T04:35:05.011Z,69.26
2023-04-30T04:36:05.110Z,68.99
2023-04-30T04:37:05.201Z,68.87
2023-04-30T04:38:05.304Z,69.28
2023-04-30T04:39:05.423Z,69.17
2023-04-30T04:40:05.522Z,68.99
2023-04-30T04:41:05.626Z,68.84
2023-04-30T04:42:05.805Z,68.66
2023-04-30T04:43:06.036Z,68.37
2023-04-30T04:44:06.849Z,68.25
2023-04-30T04:45:06.227Z,68.12
2023-04-30T04:46:06.364Z,68.04
2023-04-30T04:47:06.425Z,67.73
2023-04-30T04:48:06.540Z,67.52
2023-04-30T04:49:06.796Z,67.35
2023-04-30T04:50:06.903Z,67.26
2023-04-30T04:51:07.036Z,67.08
2023-04-30T04:52:07.109Z,67.09
2023-04-30T04:53:07.252Z,67.09
2023-04-30T04:54:07.399Z,67.14
2023-04-30T04:55:07.494Z,67.16
2023-04-30T04:56:07.662Z,67.35
2023-04-30T04:57:07.803Z,67.52
2023-04-30T04:58:07.949Z,67.68
2023-04-30T04:59:08.070Z,67.83
2023-04-30T05:00:08.211Z,68.05
2023-04-30T05:01:08.337Z,68.09
2023-04-30T05:02:08.532Z,68.02
2023-04-30T05:03:08.737Z,67.87
2023-04-30T05:04:08.835Z,67.74
2023-04-30T05:05:08.980Z,67.73
2023-04-30T05:06:09.167Z,67.77
2023-04-30T05:07:09.187Z,67.69
2023-04-30T05:08:09.282Z,67.26
2023-04-30T05:09:09.499Z,67.03
2023-04-30T05:10:09.692Z,67.11
2023-04-30T05:11:09.726Z,67.10
2023-04-30T05:12:09.872Z,66.89
2023-04-30T05:13:10.000Z,67.00
2023-04-30T05:14:10.173Z,66.88
2023-04-30T05:15:10.292Z,66.68
2023-04-30T05:16:10.458Z,66.69
2023-04-30T05:17:10.557Z,66.74
2023-04-30T05:18:10.722Z,66.63
2023-04-30T05:19:10.805Z,66.57
2023-04-30T05:20:10.918Z,66.61
2023-04-30T05:21:11.007Z,66.45
2023-04-30T05:22:11.117Z,66.42
2023-04-30T05:23:11.203Z,66.28
2023-04-30T05:24:11.281Z,66.28
2023-04-30T05:25:11.405Z,66.26
2023-04-30T05:26:11.470Z,66.16
2023-04-30T05:27:11.560Z,65.98
2023-04-30T05:28:11.662Z,66.00
2023-04-30T05:29:11.773Z,66.10
2023-04-30T05:30:11.877Z,66.03
2023-04-30T05:31:12.028Z,65.58
2023-04-30T05:32:12.142Z,65.41
2023-04-30T05:33:12.244Z,65.43
2023-04-30T05:34:12.378Z,65.42
2023-04-30T05:35:12.472Z,65.28
2023-04-30T05:36:12.616Z,65.25
2023-04-30T05:37:12.707Z,65.31
2023-04-30T05:38:12.813Z,65.38
2023-04-30T05:39:12.917Z,65.91
2023-04-30T05:40:13.187Z,66.06
2023-04-30T05:41:13.191Z,65.75
2023-04-30T05:42:13.286Z,65.54
2023-04-30T05:43:13.398Z,65.42
2023-04-30T05:44:13.654Z,64.83
2023-04-30T05:45:13.641Z,65.14
2023-04-30T05:46:13.796Z,64.55
2023-04-30T05:47:13.850Z,64.29
2023-04-30T05:48:14.006Z,63.84
2023-04-30T05:49:14.139Z,63.49
2023-04-30T05:50:14.220Z,63.15
2023-04-30T05:51:14.333Z,62.91
2023-04-30T05:52:14.412Z,62.96
2023-04-30T05:53:14.506Z,62.82
2023-04-30T05:54:14.598Z,62.57
2023-04-30T05:55:14.685Z,62.05
2023-04-30T05:56:14.794Z,61.83
2023-04-30T05:57:14.895Z,61.85
2023-04-30T05:58:15.008Z,61.50
2023-04-30T05:59:15.098Z,61.30
2023-04-30T06:00:15.204Z,61.18
2023-04-30T06:01:15.340Z,60.64
2023-04-30T06:02:15.519Z,60.37
2023-04-30T06:03:15.660Z,60.32
2023-04-30T06:04:15.708Z,60.03
2023-04-30T06:05:16.473Z,59.75
2023-04-30T06:06:15.994Z,58.98
2023-04-30T06:07:16.123Z,59.15
2023-04-30T06:08:16.219Z,58.66
2023-04-30T06:09:16.297Z,58.15
2023-04-30T06:10:16.318Z,57.92
2023-04-30T06:11:16.370Z,58.12
2023-04-30T06:12:16.438Z,57.91
2023-04-30T06:13:16.498Z,57.76
2023-04-30T06:14:16.561Z,58.35
2023-04-30T06:15:16.641Z,58.22
2023-04-30T06:16:16.669Z,58.49
2023-04-30T06:17:16.696Z,58.23
2023-04-30T06:18:16.767Z,57.99
2023-04-30T06:19:16.803Z,58.22
2023-04-30T06:20:16.932Z,58.50
2023-04-30T06:21:17.021Z,58.14
2023-04-30T06:22:17.116Z,57.68
2023-04-30T06:23:17.229Z,57.33
2023-04-30T06:24:17.366Z,56.99
2023-04-30T06:25:17.492Z,57.00
2023-04-30T06:26:17.598Z,56.83
2023-04-30T06:27:17.747Z,56.50
2023-04-30T06:28:17.839Z,57.56
2023-04-30T06:29:18.010Z,57.45
2023-04-30T06:30:18.134Z,57.76
2023-04-30T06:31:18.180Z,57.65
2023-04-30T06:32:18.411Z,57.98
2023-04-30T06:33:18.399Z,58.35
2023-04-30T06:34:18.602Z,58.73
2023-04-30T06:35:18.553Z,59.35
2023-04-30T06:36:18.678Z,59.46
2023-04-30T06:37:18.748Z,59.14
2023-04-30T06:38:18.810Z,58.73
2023-04-30T06:39:18.895Z,58.50
2023-04-30T06:40:19.003Z,58.15
2023-04-30T06:41:19.133Z,57.63
2023-04-30T06:42:19.277Z,57.74
2023-04-30T06:43:19.291Z,57.89
2023-04-30T06:44:19.369Z,57.75
2023-04-30T06:45:19.408Z,58.32
2023-04-30T06:46:19.504Z,58.18
2023-04-30T06:47:19.547Z,58.11
2023-04-30T06:48:19.613Z,58.16
2023-04-30T06:49:19.694Z,58.40
2023-04-30T06:50:19.745Z,58.02
2023-04-30T06:51:19.800Z,57.87
2023-04-30T06:52:19.901Z,57.69
2023-04-30T06:53:19.920Z,57.03
2023-04-30T06:54:19.970Z,56.54
2023-04-30T06:55:20.067Z,55.93
2023-04-30T06:56:20.146Z,55.90
2023-04-30T06:57:20.194Z,56.10
2023-04-30T06:58:20.269Z,55.55
2023-04-30T06:59:20.393Z,55.54
2023-04-30T07:00:20.478Z,54.80
2023-04-30T07:01:20.545Z,54.69
2023-04-30T07:02:22.020Z,53.88
2023-04-30T07:03:20.780Z,53.67
2023-04-30T07:04:20.780Z,53.66
2023-04-30T07:05:20.907Z,53.67
2023-04-30T07:06:21.061Z,53.57
2023-04-30T07:07:21.091Z,53.58
2023-04-30T07:08:21.154Z,53.58
2023-04-30T07:09:21.251Z,53.78
2023-04-30T07:10:21.376Z,53.91
2023-04-30T07:11:21.429Z,54.30
2023-04-30T07:12:21.549Z,54.50
2023-04-30T07:13:21.662Z,54.05
2023-04-30T07:14:21.736Z,54.19
2023-04-30T07:15:21.840Z,54.31
2023-04-30T07:16:21.979Z,54.37
2023-04-30T07:17:22.090Z,54.41
2023-04-30T07:18:22.135Z,54.37
2023-04-30T07:19:22.225Z,54.22
2023-04-30T07:20:22.319Z,54.49
2023-04-30T07:21:22.387Z,55.68
2023-04-30T07:22:22.907Z,55.98
2023-04-30T07:23:22.581Z,55.99
2023-04-30T07:24:22.689Z,55.70
2023-04-30T07:25:22.834Z,55.37
2023-04-30T07:26:22.875Z,55.35
2023-04-30T07:27:22.977Z,55.77
2023-04-30T07:28:23.126Z,56.14
2023-04-30T07:29:23.256Z,56.41
2023-04-30T07:30:25.153Z,56.45
2023-04-30T07:31:23.586Z,56.37
2023-04-30T07:32:23.663Z,56.58
2023-04-30T07:33:23.772Z,56.23
2023-04-30T07:34:23.910Z,56.17
2023-04-30T07:35:24.081Z,56.39
2023-04-30T07:36:24.194Z,56.43
2023-04-30T07:37:24.304Z,56.59
2023-04-30T07:38:24.413Z,56.82
2023-04-30T07:39:24.519Z,56.57
2023-04-30T07:40:34.763Z,56.48
2023-04-30T07:41:25.698Z,56.52
2023-04-30T07:42:24.795Z,56.53
2023-04-30T07:43:24.861Z,56.62
2023-04-30T07:44:24.952Z,56.16
2023-04-30T07:45:25.027Z,56.51
2023-04-30T07:46:25.128Z,56.82
2023-04-30T07:47:25.221Z,56.77
2023-04-30T07:48:25.301Z,56.52
2023-04-30T07:49:25.404Z,56.55
2023-04-30T07:50:25.471Z,56.56
2023-04-30T07:51:25.542Z,56.01
2023-04-30T07:52:25.682Z,55.88
2023-04-30T07:53:25.733Z,55.70
2023-04-30T07:54:25.833Z,55.39
2023-04-30T07:55:25.944Z,55.11
2023-04-30T07:56:26.063Z,55.44
2023-04-30T07:57:26.164Z,55.84
2023-04-30T07:58:26.271Z,56.72
2023-04-30T07:59:26.346Z,56.97
2023-04-30T08:00:26.502Z,57.19
2023-04-30T08:01:26.550Z,56.89
2023-04-30T08:02:26.696Z,56.54
2023-04-30T08:03:26.801Z,55.99
2023-04-30T08:04:26.957Z,55.77
2023-04-30T08:05:26.929Z,56.03
2023-04-30T08:06:27.098Z,55.22
2023-04-30T08:07:27.070Z,54.54
2023-04-30T08:08:27.928Z,54.83
2023-04-30T08:09:27.245Z,54.62
2023-04-30T08:10:27.345Z,54.47
2023-04-30T08:11:27.552Z,54.57
2023-04-30T08:12:27.524Z,54.66
2023-04-30T08:13:27.593Z,54.72
2023-04-30T08:14:27.678Z,54.76
2023-04-30T08:15:28.848Z,54.48
2023-04-30T08:16:27.874Z,54.08
2023-04-30T08:17:27.985Z,54.03
2023-04-30T08:18:28.055Z,54.32
2023-04-30T08:19:28.086Z,55.15
2023-04-30T08:20:28.182Z,54.81
2023-04-30T08:21:28.299Z,55.41
2023-04-30T08:22:28.398Z,55.46
2023-04-30T08:23:28.540Z,55.66
2023-04-30T08:24:28.632Z,55.15
2023-04-30T08:25:28.772Z,54.44
2023-04-30T08:26:28.815Z,54.51
2023-04-30T08:27:29.914Z,53.77
2023-04-30T08:28:29.052Z,53.82
2023-04-30T08:29:29.171Z,54.06
2023-04-30T08:30:29.264Z,54.03
2023-04-30T08:31:29.481Z,54.14
2023-04-30T08:32:29.461Z,54.69
2023-04-30T08:33:29.532Z,54.40
2023-04-30T08:34:29.534Z,53.72
2023-04-30T08:35:29.708Z,53.55
2023-04-30T08:36:29.671Z,53.22
2023-04-30T08:37:29.744Z,53.47
2023-04-30T08:38:29.801Z,51.31
2023-04-30T08:39:29.884Z,51.26
2023-04-30T08:40:49.461Z,51.18
2023-04-30T08:41:31.000Z,50.83
2023-04-30T08:42:30.056Z,51.08
2023-04-30T08:43:30.144Z,52.34
2023-04-30T08:44:30.144Z,51.87
2023-04-30T08:45:30.197Z,52.32
2023-04-30T08:46:30.317Z,53.03
2023-04-30T08:47:30.337Z,53.32
2023-04-30T08:48:30.385Z,53.28
2023-04-30T08:49:30.434Z,52.89
2023-04-30T08:50:30.495Z,52.79
2023-04-30T08:51:30.555Z,53.11
2023-04-30T08:52:30.634Z,53.23
2023-04-30T08:53:30.692Z,53.37
2023-04-30T08:54:30.829Z,53.81
2023-04-30T08:55:30.863Z,53.96
2023-04-30T08:56:30.946Z,54.36
2023-04-30T08:57:31.079Z,53.92
2023-04-30T08:58:31.193Z,53.54
2023-04-30T08:59:31.282Z,53.51
2023-04-30T09:00:31.444Z,53.34
2023-04-30T09:01:31.566Z,52.81
2023-04-30T09:02:31.728Z,52.56
2023-04-30T09:03:31.832Z,52.16
2023-04-30T09:04:31.880Z,52.06
2023-04-30T09:05:32.008Z,52.06
2023-04-30T09:06:32.105Z,51.37
2023-04-30T09:07:32.193Z,50.76
2023-04-30T09:08:32.266Z,52.19
2023-04-30T09:09:32.492Z,52.81
2023-04-30T09:10:32.454Z,52.10
2023-04-30T09:11:32.499Z,52.48
2023-04-30T09:12:32.898Z,52.99
2023-04-30T09:13:32.781Z,52.09
2023-04-30T09:14:32.832Z,51.96
2023-04-30T09:15:32.937Z,52.38
2023-04-30T09:16:33.342Z,53.22
2023-04-30T09:17:33.134Z,53.00
2023-04-30T09:18:33.236Z,53.48
2023-04-30T09:19:33.327Z,53.77
2023-04-30T09:20:33.429Z,53.93
2023-04-30T09:21:33.530Z,53.82
2023-04-30T09:22:33.641Z,53.61
2023-04-30T09:23:33.771Z,53.91
2023-04-30T09:24:33.855Z,53.42
2023-04-30T09:25:33.947Z,53.50
2023-04-30T09:26:34.061Z,53.81
2023-04-30T09:27:34.197Z,53.57
2023-04-30T09:28:34.270Z,51.88
2023-04-30T09:29:34.354Z,50.90
2023-04-30T09:30:34.469Z,50.65
2023-04-30T09:31:34.626Z,51.64
2023-04-30T09:32:34.709Z,50.43
2023-04-30T09:33:34.781Z,51.18
2023-04-30T09:34:34.850Z,50.45
2023-04-30T09:35:34.968Z,49.99
2023-04-30T09:36:35.070Z,50.09
2023-04-30T09:37:35.152Z,49.72
2023-04-30T09:38:35.227Z,49.39
2023-04-30T09:39:35.342Z,49.44
2023-04-30T09:40:35.477Z,50.02
2023-04-30T09:41:35.582Z,49.43
2023-04-30T09:42:35.712Z,50.62
2023-04-30T09:43:35.779Z,49.75
2023-04-30T09:44:35.858Z,49.75
2023-04-30T09:45:35.948Z,49.18
2023-04-30T09:46:36.083Z,48.91
2023-04-30T09:47:36.160Z,49.50
2023-04-30T09:48:36.244Z,49.12
2023-04-30T09:49:36.202Z,48.93
2023-04-30T09:50:36.257Z,49.42
2023-04-30T09:51:36.304Z,50.03
2023-04-30T09:52:36.362Z,48.62
2023-04-30T09:53:36.425Z,48.68
2023-04-30T09:54:36.452Z,48.49
2023-04-30T09:55:36.525Z,48.48
2023-04-30T09:56:36.566Z,47.63
2023-04-30T09:57:36.657Z,47.42
2023-04-30T09:58:36.730Z,48.26
2023-04-30T09:59:36.821Z,48.97
2023-04-30T10:00:36.935Z,48.31
2023-04-30T10:01:38.443Z,47.98
2023-04-30T10:02:37.090Z,47.72
2023-04-30T10:03:37.190Z,48.51
2023-04-30T10:04:37.142Z,47.59
2023-04-30T10:05:37.217Z,48.48
2023-04-30T10:06:37.318Z,48.66
2023-04-30T10:07:37.317Z,48.02
2023-04-30T10:08:37.382Z,47.64
2023-04-30T10:09:37.418Z,48.92
2023-04-30T10:10:37.510Z,48.24
2023-04-30T10:11:37.559Z,48.11
2023-04-30T10:12:37.668Z,47.55
2023-04-30T10:13:37.697Z,47.93
2023-04-30T10:14:37.761Z,47.80
2023-04-30T10:15:37.837Z,47.78
2023-04-30T10:16:37.946Z,46.12
2023-04-30T10:17:38.025Z,45.59
2023-04-30T10:18:38.941Z,46.14
2023-04-30T10:19:38.138Z,46.67
2023-04-30T10:20:38.170Z,46.60
2023-04-30T10:21:38.239Z,46.01
2023-04-30T10:22:38.298Z,45.80
2023-04-30T10:23:38.359Z,46.03
2023-04-30T10:24:38.417Z,46.66
2023-04-30T10:25:38.561Z,47.34
2023-04-30T10:26:38.558Z,47.44
2023-04-30T10:27:38.717Z,47.14
2023-04-30T10:28:38.685Z,47.67
2023-04-30T10:29:38.792Z,47.95
2023-04-30T10:30:38.837Z,47.45
2023-04-30T10:31:38.948Z,47.91
2023-04-30T10:32:38.996Z,47.41
2023-04-30T10:33:39.045Z,47.49
2023-04-30T10:34:39.100Z,45.12
2023-04-30T10:35:39.170Z,45.76
2023-04-30T10:36:39.245Z,46.75
2023-04-30T10:37:39.349Z,47.16
2023-04-30T10:38:39.435Z,48.14
2023-04-30T10:39:39.482Z,47.61
2023-04-30T10:40:39.522Z,48.10
2023-04-30T10:41:39.593Z,47.19
2023-04-30T10:42:39.712Z,46.87
2023-04-30T10:43:39.738Z,47.20
2023-04-30T10:44:39.811Z,47.61
2023-04-30T10:45:39.912Z,47.79
2023-04-30T10:46:40.136Z,48.76
2023-04-30T10:47:40.074Z,49.72
2023-04-30T10:48:40.121Z,49.58
2023-04-30T10:49:40.141Z,49.64
2023-04-30T10:50:40.207Z,49.98
2023-04-30T10:51:40.287Z,50.26
2023-04-30T10:52:40.398Z,50.06
2023-04-30T10:53:40.567Z,49.89
2023-04-30T10:54:40.577Z,50.26
2023-04-30T10:55:40.668Z,49.96
2023-04-30T10:56:40.782Z,50.10
2023-04-30T10:57:40.870Z,49.77
2023-04-30T10:58:41.130Z,48.93
2023-04-30T10:59:41.088Z,49.08
2023-04-30T11:00:42.526Z,49.49
2023-04-30T11:01:41.354Z,49.21
2023-04-30T11:02:41.503Z,50.11
2023-04-30T11:03:41.556Z,50.22
2023-04-30T11:04:41.702Z,50.77
2023-04-30T11:05:41.818Z,51.38
2023-04-30T11:06:43.418Z,51.51
2023-04-30T11:07:41.977Z,51.02
2023-04-30T11:08:42.060Z,50.82
2023-04-30T11:09:42.163Z,49.76
2023-04-30T11:10:42.206Z,49.32
2023-04-30T11:11:42.311Z,49.39
2023-04-30T11:12:42.338Z,49.01
2023-04-30T11:13:42.456Z,48.30
2023-04-30T11:14:42.508Z,48.11
2023-04-30T11:15:42.569Z,47.92
2023-04-30T11:16:42.658Z,47.51
2023-04-30T11:17:42.770Z,48.46
2023-04-30T11:18:42.724Z,47.87
2023-04-30T11:19:42.796Z,48.34
2023-04-30T11:20:42.862Z,47.74
2023-04-30T11:21:42.946Z,48.40
2023-04-30T11:22:42.985Z,46.99
2023-04-30T11:23:43.050Z,47.41
2023-04-30T11:24:43.108Z,47.84
2023-04-30T11:25:43.195Z,47.51
2023-04-30T11:26:43.313Z,47.68
2023-04-30T11:27:43.315Z,47.52
2023-04-30T11:28:43.449Z,47.07
2023-04-30T11:29:43.450Z,46.83
2023-04-30T11:30:43.524Z,46.90
2023-04-30T11:31:43.645Z,47.71
2023-04-30T11:32:43.706Z,47.56
2023-04-30T11:33:43.713Z,46.91
2023-04-30T11:34:43.782Z,47.12
2023-04-30T11:35:43.845Z,47.33
2023-04-30T11:36:46.755Z,47.29
2023-04-30T11:37:43.949Z,47.56
2023-04-30T11:38:44.038Z,46.56
2023-04-30T11:39:44.051Z,46.18
2023-04-30T11:40:44.123Z,46.35
2023-04-30T11:41:44.198Z,45.73
2023-04-30T11:42:45.775Z,45.39
2023-04-30T11:43:44.340Z,45.90
2023-04-30T11:44:44.302Z,46.09
2023-04-30T11:45:44.370Z,46.04
2023-04-30T11:46:44.650Z,45.38
2023-04-30T11:47:44.538Z,45.09
2023-04-30T11:48:44.592Z,44.63
2023-04-30T11:49:44.596Z,44.74
2023-04-30T11:50:44.722Z,44.58
2023-04-30T11:51:44.719Z,44.55
2023-04-30T11:52:44.872Z,43.82
2023-04-30T11:53:44.925Z,44.16
2023-04-30T11:54:44.999Z,43.84
2023-04-30T11:55:45.066Z,44.49
2023-04-30T11:56:45.184Z,43.83
2023-04-30T11:57:45.463Z,43.62
2023-04-30T11:58:45.371Z,43.28
2023-04-30T11:59:45.448Z,43.88
2023-04-30T12:00:45.551Z,43.25
2023-04-30T12:01:45.709Z,43.13
2023-04-30T12:02:45.868Z,43.75
2023-04-30T12:03:45.909Z,43.67
2023-04-30T12:04:45.854Z,43.71
2023-04-30T12:05:45.863Z,43.41
2023-04-30T12:06:45.951Z,42.74
2023-04-30T12:07:45.956Z,42.66
2023-04-30T12:08:46.006Z,43.87
2023-04-30T12:09:46.055Z,43.20
2023-04-30T12:10:46.150Z,43.19
2023-04-30T12:11:46.187Z,43.85
2023-04-30T12:12:46.202Z,43.61
2023-04-30T12:13:46.231Z,43.62
2023-04-30T12:14:46.294Z,42.93
2023-04-30T12:15:46.290Z,43.35
2023-04-30T12:16:46.362Z,42.73
2023-04-30T12:17:46.565Z,42.04
2023-04-30T12:18:46.431Z,43.01
2023-04-30T12:19:46.539Z,43.35
2023-04-30T12:20:46.578Z,43.20
2023-04-30T12:21:46.641Z,43.00
2023-04-30T12:22:46.711Z,42.87
2023-04-30T12:23:46.823Z,42.75
2023-04-30T12:24:46.894Z,43.04
2023-04-30T12:25:47.027Z,43.01
2023-04-30T12:26:47.080Z,42.99
2023-04-30T12:27:47.215Z,42.80
2023-04-30T12:28:47.224Z,43.08
2023-04-30T12:29:47.323Z,42.76
2023-04-30T12:30:47.402Z,43.03
2023-04-30T12:31:47.509Z,43.30
2023-04-30T12:32:47.585Z,43.48
2023-04-30T12:33:47.625Z,43.30
2023-04-30T12:34:47.635Z,44.13
2023-04-30T12:35:47.693Z,44.02
2023-04-30T12:36:47.731Z,43.42
2023-04-30T12:37:47.797Z,43.47
2023-04-30T12:38:47.855Z,43.50
2023-04-30T12:39:47.937Z,43.10
2023-04-30T12:40:47.955Z,43.77
2023-04-30T12:41:47.982Z,43.16
2023-04-30T12:42:48.022Z,42.31
2023-04-30T12:43:48.075Z,42.00
2023-04-30T12:44:48.114Z,41.95
2023-04-30T12:45:48.246Z,41.76
2023-04-30T12:46:48.247Z,41.80
2023-04-30T12:47:48.281Z,42.72
2023-04-30T12:48:48.333Z,42.58
2023-04-30T12:49:48.302Z,42.63
2023-04-30T12:50:48.362Z,42.75
2023-04-30T12:51:48.412Z,42.22
2023-04-30T12:52:48.449Z,41.79
2023-04-30T12:53:48.505Z,42.35